Thursday, August 24, 2017, 12:56 AM EDT
Back to Local

KORE, Orange, Orange Municipal Airport

Location: Orange, MA, United States Lat: 42.572
Local Time: 12:56 AM EDT ( 4:56 GMT) Lon: -72.278
Time Zone: US/Eastern Elev: 554 ft

Show me the last for .
Show Coded

Time T Td Feel RH Dir Speed Gust Alt SLP Vis Weather Sky Remarks
2017-08-23 23:52 57 56 - 96 - Calm - 29.87 29.87 10 CLR None
2017-08-23 22:52 58 56 - 93 - Calm - 29.86 29.86 10 CLR None
2017-08-23 21:52 58 57 - 96 - Calm - 29.86 29.86 10 CLR None
2017-08-23 20:52 61 57 - 86 - Calm - 29.86 29.85 10 CLR None
2017-08-23 19:52 64 56 - 74 250° 5 - 29.84 29.83 10 CLR 6-hr Min Temp (8pm): 64.0°F
6-hr Max Temp (8pm): 75.9°F
2017-08-23 18:52 73 51 76 46 280° 7 - 29.82 29.81 10 CLR None
2017-08-23 17:52 75 50 77 41 280° 8 - 29.81 29.80 10 CLR None
2017-08-23 16:52 75 49 - 39 290° 13 20 29.82 29.81 10 CLR None
2017-08-23 15:52 76 51 77 41 300° 10 - 29.81 29.80 10 CLR None
2017-08-23 14:52 76 54 78 46 300° 10 - 29.81 29.80 10 CLR None
2017-08-23 13:52 75 53 77 46 310° 12 - 29.82 29.81 10 FEW050 6-hr Min Temp (2pm): 66.9°F
6-hr Max Temp (2pm): 75.0°F
2017-08-23 12:52 74 51 76 44 310° 13 - 29.81 29.80 10 CLR None
2017-08-23 11:52 73 52 76 47 260° 13 - 29.81 29.80 10 CLR None
2017-08-23 10:52 71 55 76 56 300° 8 - 29.81 29.80 10 CLR None
2017-08-23 09:52 70 55 - 59 300° 9 - 29.80 29.80 10 FEW110 None
2017-08-23 08:52 69 55 - 60 270° 12 18 29.79 29.78 10 SCT060 OVC110 None
2017-08-23 07:52 69 64 - 84 310° 12 - 29.76 29.75 10 SCT017 24-hr Precip Total (8am): 1.08"
6-hr Min Temp (8am): 69.1°F
6-hr Max Temp (8am): 72.0°F
2017-08-23 06:52 69 66 - 90 290° 7 - 29.74 29.73 10 OVC060 None
2017-08-23 05:52 71 67 76 86 260° 9 - 29.72 29.71 10 OVC050 None
2017-08-23 04:52 71 69 76 93 250° 6 - 29.71 29.69 10 CLR None
2017-08-23 03:52 72 70 76 93 230° 9 - 29.69 29.68 10 FEW060 SCT075 None
2017-08-23 03:06 72 71 77 97 220° 12 - 29.70 - 10 SCT018 SCT026 BKN060 None
2017-08-23 02:52 72 71 77 97 210° 9 - 29.70 29.69 10 FEW016 SCT025 BKN029 None
2017-08-23 02:47 72 72 76 100 200° 13 - 29.70 - 10 FEW019 BKN029 BKN037 None
2017-08-23 01:52 72 72 77 100 150° 6 - 29.70 29.69 8 FEW012 BKN080 OVC120 1-hr Precip Total: 0.01"
6-hr Precip Total (2am): 1.08"
6-hr Min Temp (2am): 71.1°F
6-hr Max Temp (2am): 80.1°F

Support USWX by starting your Amazon purchase here.